Terminal Aerodrome Forecast
Issued by NWS Portland, ME

Home | Current Version | Previous Version | Text Only | Print | Product List | Glossary On
Versions: 1 2 3 4 5 6 7 8 9 10 11 12 13 14 15 16 17 18 19 20 21 22 23
000
FTUS41 KGYX 191240 AAA
TAFPWM
TAF AMD
KPWM 191240Z 1913/2012 31005KT P6SM BKN007 OVC015
     FM191500 VRB04KT P6SM OVC012
     FM191800 16008KT P6SM SCT040
     FM200200 28003KT P6SM SCT040=

USA.gov is the U.S. government's official web portal to all federal, state and local government web resources and services.